SVBC/BLA METAR and TAF weather

Enter ICAO airport designator
Station Type Date Time Source
SVBC METAR 2019/10/22 22:00 UTC NOAA

SVBC 222200Z 2300/2400 36010KT 9999 FEW010 SCT010 TX34/19Z TN25/08Z TEMPO 2300/2304 11015KT 8000 DZ BKN010 FM222300 04006KT 9999 SCT010


Station Type Date Time Source
SVBC Decoded METAR 2019/10/22 22:00 UTC NOAA

Barcelona, Venezuela (SVBC) 10-07N 064-41W 7M
Oct 22, 2019 - 06:00 PM EDT / 2019.10.22 2200 UTC
Wind: from the N (360 degrees) at 12 MPH (10 KT):0
Visibility: greater than 7 mile(s):0
Sky conditions: partly cloudy
ob: SVBC 222200Z 2300/2400 36010KT 9999 FEW010 SCT010 TX34/19Z TN25/08Z TEMPO 2300/2304 11015KT 8000 DZ BKN010 FM222300 04006KT 9999 SCT010
cycle: 22

Station Type Date Time Source
SVBC TAF 2019/12/10 06:09 UTC NOAA

TAF SVBC 100400Z 1006/1106 09006KT 9999 FEW016 TX31/19Z TN23/08Z
TEMPO 1006/1010 18008KT SCT010

Example: see airport list